Time,TemperatureF,DewpointF,PressureIn,WindDirection,WindDirectionDegrees,WindSpeedMPH,WindSpeedGustMPH,Humidity,HourlyPrecipIn,Conditions,Clouds,dailyrainin,SoftwareType,DateUTC
2013-07-02 08:06:00,69.7,69.7,30.15,SE,140,2.0,5.0,100,0.00,,,0.00,Wunderground v.1.15,2013-07-02 12:06:00,
2013-07-02 08:11:00,69.6,69.6,30.15,South,191,2.0,2.0,100,0.00,,,0.00,Wunderground v.1.15,2013-07-02 12:11:00,
2013-07-02 08:16:00,69.6,69.6,30.15,SSE,166,1.0,2.0,100,0.00,,,0.00,Wunderground v.1.15,2013-07-02 12:16:00,
2013-07-02 08:21:00,69.6,69.6,30.15,SSW,211,1.0,5.0,100,0.00,,,0.00,Wunderground v.1.15,2013-07-02 12:21:00,
2013-07-02 08:26:00,69.7,69.7,30.15,SSE,167,2.0,5.0,100,0.00,,,0.00,Wunderground v.1.15,2013-07-02 12:26:00,
2013-07-02 08:31:00,69.9,69.9,30.15,South,169,1.0,1.0,100,0.00,,,0.00,Wunderground v.1.15,2013-07-02 12:31:00,
2013-07-02 08:36:00,70.1,70.1,30.16,SSE,160,0.0,1.0,100,0.00,,,0.00,Wunderground v.1.15,2013-07-02 12:36:00,
2013-07-02 08:41:00,70.4,70.4,30.16,South,177,1.0,2.0,100,0.00,,,0.00,Wunderground v.1.15,2013-07-02 12:41:00,
2013-07-02 08:46:00,70.5,70.5,30.16,SSE,152,1.0,3.0,100,0.00,,,0.00,Wunderground v.1.15,2013-07-02 12:46:00,
2013-07-02 08:51:00,70.7,70.7,30.16,SSW,201,1.0,1.0,100,0.00,,,0.00,Wunderground v.1.15,2013-07-02 12:51:00,
2013-07-02 08:56:00,70.6,70.6,30.16,South,179,1.0,1.0,100,0.00,,,0.00,Wunderground v.1.15,2013-07-02 12:56:00,
2013-07-02 09:01:00,70.8,70.8,30.16,SW,218,1.0,1.0,100,0.00,,,0.00,Wunderground v.1.15,2013-07-02 13:01:00,
2013-07-02 09:06:00,70.8,70.8,30.16,SSW,207,0.0,1.0,100,0.00,,,0.00,Wunderground v.1.15,2013-07-02 13:06:00,
2013-07-02 09:11:00,70.8,70.8,30.16,SSW,194,0.0,0.0,100,0.00,,,0.00,Wunderground v.1.15,2013-07-02 13:11:00,
2013-07-02 09:21:00,71.2,71.2,30.16,SSW,208,0.0,1.0,100,0.00,,,0.00,Wunderground v.1.15,2013-07-02 13:21:00,
2013-07-02 09:26:00,71.6,71.6,30.16,SSW,197,0.0,1.0,100,0.00,,,0.00,Wunderground v.1.15,2013-07-02 13:26:00,
2013-07-02 09:36:00,72.2,72.2,30.16,South,187,0.0,0.0,100,0.00,,,0.00,Wunderground v.1.15,2013-07-02 13:36:00,
2013-07-02 09:41:00,72.4,72.4,30.16,SW,219,0.0,0.0,100,0.00,,,0.00,Wunderground v.1.15,2013-07-02 13:41:00,
2013-07-02 09:46:00,72.4,72.1,30.16,SSW,198,0.0,0.0,99,0.00,,,0.00,Wunderground v.1.15,2013-07-02 13:46:00,
2013-07-02 09:51:00,72.3,72.0,30.16,SW,218,0.0,1.0,99,0.00,,,0.00,Wunderground v.1.15,2013-07-02 13:51:00,
2013-07-02 09:56:00,72.1,71.8,30.16,South,191,0.0,1.0,99,0.00,,,0.00,Wunderground v.1.15,2013-07-02 13:56:00,
2013-07-02 10:01:00,72.2,71.9,30.16,SSW,194,0.0,0.0,99,0.00,,,0.00,Wunderground v.1.15,2013-07-02 14:01:00,
2013-07-02 10:06:00,72.2,71.9,30.16,South,180,0.0,0.0,99,0.00,,,0.00,Wunderground v.1.15,2013-07-02 14:06:00,
2013-07-02 10:11:00,72.2,71.9,30.16,South,190,0.0,0.0,99,0.00,,,0.00,Wunderground v.1.15,2013-07-02 14:11:00,
2013-07-02 10:16:00,72.3,72.0,30.16,SSW,205,0.0,0.0,99,0.00,,,0.00,Wunderground v.1.15,2013-07-02 14:16:00,
2013-07-02 10:21:00,72.2,71.9,30.16,SW,214,0.0,1.0,99,0.00,,,0.00,Wunderground v.1.15,2013-07-02 14:21:00,
2013-07-02 10:26:00,72.2,71.9,30.16,South,188,0.0,1.0,99,0.00,,,0.00,Wunderground v.1.15,2013-07-02 14:26:00,
2013-07-02 10:31:00,72.4,72.1,30.16,South,183,0.0,0.0,99,0.00,,,0.00,Wunderground v.1.15,2013-07-02 14:31:00,
2013-07-02 10:36:00,72.6,72.3,30.16,SW,224,0.0,0.0,99,0.00,,,0.00,Wunderground v.1.15,2013-07-02 14:36:00,
2013-07-02 10:41:00,72.7,72.1,30.16,SSW,205,0.0,0.0,98,0.00,,,0.00,Wunderground v.1.15,2013-07-02 14:41:00,
2013-07-02 10:46:00,72.8,72.2,30.16,SSW,203,0.0,7.0,98,0.00,,,0.00,Wunderground v.1.15,2013-07-02 14:46:00,
2013-07-02 10:51:00,72.8,72.2,30.16,South,176,1.0,1.0,98,0.00,,,0.00,Wunderground v.1.15,2013-07-02 14:51:00,
2013-07-02 10:56:00,72.8,72.2,30.16,SSW,204,1.0,1.0,98,0.00,,,0.00,Wunderground v.1.15,2013-07-02 14:56:00,
2013-07-02 11:01:00,73.1,72.5,30.16,WSW,243,1.0,1.0,98,0.00,,,0.00,Wunderground v.1.15,2013-07-02 15:01:00,
2013-07-02 11:06:00,73.6,73.0,30.16,South,186,1.0,1.0,98,0.00,,,0.00,Wunderground v.1.15,2013-07-02 15:06:00,
2013-07-02 11:16:00,74.4,73.5,30.17,SW,229,1.0,1.0,97,0.00,,,0.00,Wunderground v.1.15,2013-07-02 15:16:00,
2013-07-02 11:21:00,74.6,73.7,30.17,South,186,1.0,1.0,97,0.00,,,0.00,Wunderground v.1.15,2013-07-02 15:21:00,
2013-07-02 11:26:00,74.1,72.9,30.17,South,188,2.0,4.0,96,0.00,,,0.00,Wunderground v.1.15,2013-07-02 15:26:00,
2013-07-02 11:36:00,73.6,72.4,30.17,SSE,165,4.0,8.0,96,0.00,,,0.00,Wunderground v.1.15,2013-07-02 15:36:00,
2013-07-02 11:46:00,72.7,71.8,30.17,SSW,201,5.0,5.0,97,0.00,,,0.00,Wunderground v.1.15,2013-07-02 15:46:00,
2013-07-02 11:51:00,72.6,71.7,30.18,SSW,207,5.0,5.0,97,0.00,,,0.00,Wunderground v.1.15,2013-07-02 15:51:00,
2013-07-02 12:01:00,72.9,72.3,30.17,South,187,5.0,5.0,98,0.00,,,0.00,Wunderground v.1.15,2013-07-02 16:01:00,
2013-07-02 12:06:00,73.2,72.6,30.17,SSW,208,5.0,5.0,98,0.00,,,0.00,Wunderground v.1.15,2013-07-02 16:06:00,
2013-07-02 12:11:00,73.4,72.5,30.18,SW,224,4.0,5.0,97,0.00,,,0.00,Wunderground v.1.15,2013-07-02 16:11:00,
2013-07-02 12:16:00,73.6,72.7,30.18,SSW,211,3.0,5.0,97,0.00,,,0.00,Wunderground v.1.15,2013-07-02 16:16:00,
2013-07-02 12:21:00,73.8,72.9,30.18,SSW,211,3.0,6.0,97,0.00,,,0.00,Wunderground v.1.15,2013-07-02 16:21:00,
2013-07-02 12:26:00,74.4,73.5,30.18,SW,222,4.0,6.0,97,0.00,,,0.00,Wunderground v.1.15,2013-07-02 16:26:00,
2013-07-02 12:31:00,75.5,74.6,30.18,SW,226,4.0,5.0,97,0.00,,,0.00,Wunderground v.1.15,2013-07-02 16:31:00,
2013-07-02 12:36:00,75.6,74.1,30.18,South,188,5.0,5.0,95,0.00,,,0.00,Wunderground v.1.15,2013-07-02 16:36:00,
2013-07-02 12:41:00,75.5,74.0,30.18,SSW,207,6.0,6.0,95,0.00,,,0.00,Wunderground v.1.15,2013-07-02 16:41:00,
2013-07-02 12:46:00,75.3,73.8,30.18,SW,224,8.0,8.0,95,0.00,,,0.00,Wunderground v.1.15,2013-07-02 16:46:00,
2013-07-02 12:51:00,75.4,73.9,30.18,SSW,201,7.0,7.0,95,0.00,,,0.00,Wunderground v.1.15,2013-07-02 16:51:00,
2013-07-02 12:56:00,75.4,73.6,30.18,SSW,212,7.0,7.0,94,0.00,,,0.00,Wunderground v.1.15,2013-07-02 16:56:00,
2013-07-02 13:01:00,75.3,73.8,30.18,SSE,160,7.0,7.0,95,0.00,,,0.00,Wunderground v.1.15,2013-07-02 17:01:00,
2013-07-02 13:06:00,75.3,73.5,30.18,SW,219,7.0,9.0,94,0.00,,,0.00,Wunderground v.1.15,2013-07-02 17:06:00,
2013-07-02 13:11:00,74.9,73.1,30.18,SSW,198,7.0,10.0,94,0.00,,,0.00,Wunderground v.1.15,2013-07-02 17:11:00,
2013-07-02 13:16:00,74.4,72.9,30.18,SSW,203,7.0,10.0,95,0.00,,,0.00,Wunderground v.1.15,2013-07-02 17:16:00,
2013-07-02 13:21:00,74.2,72.7,30.17,SSW,198,7.0,7.0,95,0.00,,,0.00,Wunderground v.1.15,2013-07-02 17:21:00,
2013-07-02 13:26:00,74.1,72.9,30.17,SSW,204,7.0,7.0,96,0.00,,,0.00,Wunderground v.1.15,2013-07-02 17:26:00,
2013-07-02 13:36:00,74.5,73.0,30.17,SSW,207,7.0,8.0,95,0.00,,,0.00,Wunderground v.1.15,2013-07-02 17:36:00,
2013-07-02 13:41:00,75.2,74.0,30.17,SSW,193,6.0,6.0,96,0.00,,,0.00,Wunderground v.1.15,2013-07-02 17:41:00,
2013-07-02 13:51:00,75.6,73.8,30.17,WSW,245,5.0,5.0,94,0.00,,,0.00,Wunderground v.1.15,2013-07-02 17:51:00,
2013-07-02 13:56:00,75.5,73.7,30.17,SW,225,5.0,5.0,94,0.00,,,0.00,Wunderground v.1.15,2013-07-02 17:56:00,
2013-07-02 14:01:00,75.5,73.7,30.17,SSW,211,5.0,5.0,94,0.00,,,0.00,Wunderground v.1.15,2013-07-02 18:01:00,
2013-07-02 14:06:00,75.6,73.8,30.17,SW,217,5.0,7.0,94,0.00,,,0.00,Wunderground v.1.15,2013-07-02 18:06:00,
2013-07-02 14:11:00,75.7,73.8,30.17,SW,224,6.0,6.0,94,0.00,,,0.00,Wunderground v.1.15,2013-07-02 18:11:00,
2013-07-02 14:16:00,75.9,74.0,30.16,SW,218,6.0,6.0,94,0.00,,,0.00,Wunderground v.1.15,2013-07-02 18:16:00,
2013-07-02 14:21:00,75.9,74.0,30.16,SSE,163,5.0,7.0,94,0.00,,,0.00,Wunderground v.1.15,2013-07-02 18:21:00,
2013-07-02 14:26:00,75.6,73.8,30.16,South,184,6.0,8.0,94,0.00,,,0.00,Wunderground v.1.15,2013-07-02 18:26:00,
2013-07-02 14:36:00,74.9,73.4,30.16,SSW,207,7.0,12.0,95,0.00,,,0.00,Wunderground v.1.15,2013-07-02 18:36:00,
2013-07-02 14:46:00,74.2,73.0,30.16,SSW,198,7.0,7.0,96,0.00,,,0.00,Wunderground v.1.15,2013-07-02 18:46:00,
2013-07-02 14:51:00,74.1,72.9,30.16,South,182,6.0,6.0,96,0.00,,,0.00,Wunderground v.1.15,2013-07-02 18:51:00,
2013-07-02 14:56:00,73.9,72.7,30.16,South,179,4.0,6.0,96,0.00,,,0.00,Wunderground v.1.15,2013-07-02 18:56:00,
2013-07-02 15:01:00,74.0,72.8,30.16,South,169,4.0,4.0,96,0.00,,,0.00,Wunderground v.1.15,2013-07-02 19:01:00,
2013-07-02 15:06:00,74.5,73.3,30.15,SW,229,4.0,4.0,96,0.00,,,0.00,Wunderground v.1.15,2013-07-02 19:06:00,
2013-07-02 15:11:00,75.0,73.5,30.15,WNW,298,5.0,5.0,95,0.00,,,0.00,Wunderground v.1.15,2013-07-02 19:11:00,
2013-07-02 15:16:00,75.4,73.9,30.15,SW,222,5.0,9.0,95,0.00,,,0.00,Wunderground v.1.15,2013-07-02 19:16:00,
2013-07-02 15:21:00,75.4,73.6,30.15,SW,229,4.0,5.0,94,0.00,,,0.00,Wunderground v.1.15,2013-07-02 19:21:00,
2013-07-02 15:31:00,76.1,73.9,30.15,South,174,5.0,6.0,93,0.00,,,0.00,Wunderground v.1.15,2013-07-02 19:31:00,
2013-07-02 15:41:00,76.4,74.2,30.15,SSW,212,7.0,7.0,93,0.00,,,0.00,Wunderground v.1.15,2013-07-02 19:41:00,
2013-07-02 15:46:00,76.1,73.6,30.15,SSW,198,7.0,7.0,92,0.00,,,0.00,Wunderground v.1.15,2013-07-02 19:46:00,
2013-07-02 15:51:00,75.6,73.4,30.15,South,188,7.0,7.0,93,0.00,,,0.00,Wunderground v.1.15,2013-07-02 19:51:00,
2013-07-02 15:56:00,75.3,73.1,30.16,SSE,167,7.0,9.0,93,0.00,,,0.00,Wunderground v.1.15,2013-07-02 19:56:00,
2013-07-02 16:01:00,75.2,73.4,30.15,South,172,8.0,8.0,94,0.00,,,0.00,Wunderground v.1.15,2013-07-02 20:01:00,
2013-07-02 16:11:00,75.4,73.2,30.15,SSE,165,8.0,9.0,93,0.00,,,0.00,Wunderground v.1.15,2013-07-02 20:11:00,
2013-07-02 16:16:00,75.2,73.0,30.15,SSW,212,8.0,10.0,93,0.00,,,0.00,Wunderground v.1.15,2013-07-02 20:16:00,
2013-07-02 16:21:00,75.3,73.1,30.15,SSW,210,8.0,8.0,93,0.00,,,0.00,Wunderground v.1.15,2013-07-02 20:21:00,
2013-07-02 16:31:00,76.3,73.8,30.15,SSW,193,8.0,8.0,92,0.00,,,0.00,Wunderground v.1.15,2013-07-02 20:31:00,
2013-07-02 16:36:00,76.2,73.4,30.15,SW,216,8.0,9.0,91,0.00,,,0.00,Wunderground v.1.15,2013-07-02 20:36:00,
2013-07-02 16:45:00,76.4,73.6,30.15,South,188,8.0,9.0,91,0.00,,,0.00,Wunderground v.1.15,2013-07-02 20:45:00,
2013-07-02 16:51:00,76.4,73.2,30.15,South,187,8.0,8.0,90,0.00,,,0.00,Wunderground v.1.15,2013-07-02 20:51:00,
2013-07-02 17:00:00,75.2,72.4,30.15,SW,217,6.0,6.0,91,0.00,,,0.00,Wunderground v.1.15,2013-07-02 21:00:00,
2013-07-02 17:05:00,75.4,72.9,30.15,SSE,153,5.0,6.0,92,0.00,,,0.00,Wunderground v.1.15,2013-07-02 21:05:00,
2013-07-02 17:10:00,75.7,73.2,30.14,SW,222,4.0,4.0,92,0.00,,,0.00,Wunderground v.1.15,2013-07-02 21:10:00,
2013-07-02 17:16:00,76.1,73.3,30.14,SSW,207,4.0,4.0,91,0.00,,,0.00,Wunderground v.1.15,2013-07-02 21:16:00,
2013-07-02 17:21:00,76.4,73.6,30.15,SSE,156,4.0,5.0,91,0.00,,,0.00,Wunderground v.1.15,2013-07-02 21:21:00,
2013-07-02 17:31:00,76.7,73.5,30.15,SSE,159,4.0,4.0,90,0.00,,,0.00,Wunderground v.1.15,2013-07-02 21:31:00,
2013-07-02 17:36:00,76.0,72.2,30.15,South,191,5.0,6.0,88,0.00,,,0.00,Wunderground v.1.15,2013-07-02 21:36:00,
2013-07-02 17:41:00,75.2,72.1,30.15,SSE,151,6.0,6.0,90,0.00,,,0.00,Wunderground v.1.15,2013-07-02 21:41:00,
2013-07-02 17:46:00,74.6,71.8,30.16,SE,141,7.0,7.0,91,0.00,,,0.00,Wunderground v.1.15,2013-07-02 21:46:00,
2013-07-02 17:51:00,73.9,71.4,30.16,SE,136,7.0,7.0,92,0.00,,,0.00,Wunderground v.1.15,2013-07-02 21:51:00,
2013-07-02 17:56:00,73.7,71.5,30.16,SSW,204,6.0,7.0,93,0.00,,,0.00,Wunderground v.1.15,2013-07-02 21:56:00,
2013-07-02 18:01:00,73.6,71.4,30.16,SSW,201,6.0,6.0,93,0.00,,,0.00,Wunderground v.1.15,2013-07-02 22:01:00,
2013-07-02 18:06:00,73.3,71.2,30.16,SSE,156,6.0,7.0,93,0.00,,,0.00,Wunderground v.1.15,2013-07-02 22:06:00,
2013-07-02 18:11:00,73.4,71.6,30.16,SSE,168,6.0,6.0,94,0.00,,,0.00,Wunderground v.1.15,2013-07-02 22:11:00,
2013-07-02 18:16:00,73.7,71.5,30.16,SSE,153,5.0,6.0,93,0.00,,,0.00,Wunderground v.1.15,2013-07-02 22:16:00,
2013-07-02 18:21:00,73.7,71.2,30.16,SSW,204,5.0,7.0,92,0.00,,,0.00,Wunderground v.1.15,2013-07-02 22:21:00,
2013-07-02 18:26:00,73.5,71.4,30.17,SSE,152,6.0,7.0,93,0.00,,,0.00,Wunderground v.1.15,2013-07-02 22:26:00,
2013-07-02 18:36:00,72.4,70.6,30.17,SSE,166,7.0,8.0,94,0.00,,,0.00,Wunderground v.1.15,2013-07-02 22:36:00,
2013-07-02 18:41:00,72.0,70.5,30.17,SSE,153,6.0,6.0,95,0.00,,,0.00,Wunderground v.1.15,2013-07-02 22:41:00,
2013-07-02 18:46:00,71.7,70.2,30.17,SSW,208,7.0,7.0,95,0.00,,,0.00,Wunderground v.1.15,2013-07-02 22:46:00,
2013-07-02 18:51:00,71.5,70.3,30.17,South,179,6.0,6.0,96,0.00,,,0.00,Wunderground v.1.15,2013-07-02 22:51:00,
2013-07-02 18:56:00,71.2,70.0,30.17,South,169,6.0,6.0,96,0.00,,,0.00,Wunderground v.1.15,2013-07-02 22:56:00,
2013-07-02 19:01:00,71.1,70.2,30.18,SSW,208,6.0,6.0,97,0.00,,,0.00,Wunderground v.1.15,2013-07-02 23:01:00,
2013-07-02 19:06:00,70.9,70.0,30.18,South,169,7.0,8.0,97,0.00,,,0.00,Wunderground v.1.15,2013-07-02 23:06:00,
2013-07-02 19:11:00,70.8,69.9,30.18,SSW,198,7.0,9.0,97,0.00,,,0.00,Wunderground v.1.15,2013-07-02 23:11:00,
2013-07-02 19:16:00,70.8,69.9,30.18,SSW,194,7.0,9.0,97,0.00,,,0.00,Wunderground v.1.15,2013-07-02 23:16:00,
2013-07-02 19:21:00,70.7,69.8,30.18,SSW,207,6.0,6.0,97,0.00,,,0.00,Wunderground v.1.15,2013-07-02 23:21:00,
2013-07-02 19:26:00,70.6,69.7,30.18,SSE,157,5.0,6.0,97,0.00,,,0.00,Wunderground v.1.15,2013-07-02 23:26:00,
2013-07-02 19:31:00,70.4,69.8,30.18,SSW,201,3.0,4.0,98,0.00,,,0.00,Wunderground v.1.15,2013-07-02 23:31:00,
2013-07-02 19:36:00,70.3,69.7,30.18,SSW,194,3.0,4.0,98,0.00,,,0.00,Wunderground v.1.15,2013-07-02 23:36:00,
2013-07-02 19:46:00,70.1,69.5,30.18,SSE,166,4.0,5.0,98,0.00,,,0.00,Wunderground v.1.15,2013-07-02 23:46:00,
2013-07-02 19:51:00,69.9,69.3,30.18,SSW,198,4.0,4.0,98,0.00,,,0.00,Wunderground v.1.15,2013-07-02 23:51:00,
2013-07-02 19:56:00,69.8,69.2,30.18,SSW,194,4.0,4.0,98,0.00,,,0.00,Wunderground v.1.15,2013-07-02 23:56:00,
2013-07-02 20:01:00,69.7,69.1,30.18,SW,219,3.0,3.0,98,0.00,,,0.00,Wunderground v.1.15,2013-07-03 00:01:00,
2013-07-02 20:06:00,69.6,69.0,30.18,SW,214,3.0,3.0,98,0.00,,,0.00,Wunderground v.1.15,2013-07-03 00:06:00,
2013-07-02 20:10:00,69.6,69.3,30.18,SW,214,3.0,3.0,99,0.00,,,0.00,Wunderground v.1.15,2013-07-03 00:10:00,
2013-07-02 20:16:00,69.6,69.3,30.18,SSW,200,3.0,4.0,99,0.00,,,0.00,Wunderground v.1.15,2013-07-03 00:16:00,
2013-07-02 20:21:00,69.7,69.4,30.18,South,187,4.0,4.0,99,0.00,,,0.00,Wunderground v.1.15,2013-07-03 00:21:00,
2013-07-02 20:31:00,70.6,70.3,30.18,SW,225,3.0,4.0,99,0.00,,,0.00,Wunderground v.1.15,2013-07-03 00:31:00,
2013-07-02 20:36:00,70.8,70.5,30.18,SSE,158,3.0,4.0,99,0.00,,,0.00,Wunderground v.1.15,2013-07-03 00:36:00,
2013-07-02 20:41:00,70.9,70.6,30.18,SSW,207,3.0,3.0,99,0.00,,,0.00,Wunderground v.1.15,2013-07-03 00:41:00,
2013-07-02 20:46:00,71.0,70.7,30.18,SSW,200,3.0,3.0,99,0.00,,,0.00,Wunderground v.1.15,2013-07-03 00:46:00,
2013-07-02 20:51:00,71.0,70.7,30.19,SW,226,3.0,3.0,99,0.00,,,0.00,Wunderground v.1.15,2013-07-03 00:51:00,
2013-07-02 20:56:00,71.1,70.8,30.19,SSE,160,4.0,4.0,99,0.00,,,0.00,Wunderground v.1.15,2013-07-03 00:56:00,
2013-07-02 21:01:00,71.2,70.6,30.19,SSW,201,4.0,4.0,98,0.00,,,0.00,Wunderground v.1.15,2013-07-03 01:01:00,
2013-07-02 21:06:00,71.2,70.6,30.19,SSW,194,4.0,4.0,98,0.00,,,0.00,Wunderground v.1.15,2013-07-03 01:06:00,
2013-07-02 21:11:00,71.3,70.7,30.19,SSE,166,4.0,4.0,98,0.00,,,0.00,Wunderground v.1.15,2013-07-03 01:11:00,
2013-07-02 21:16:00,71.3,70.7,30.19,SW,214,4.0,6.0,98,0.00,,,0.00,Wunderground v.1.15,2013-07-03 01:16:00,
2013-07-02 21:21:00,71.3,70.7,30.20,SSW,198,4.0,4.0,98,0.00,,,0.00,Wunderground v.1.15,2013-07-03 01:21:00,
2013-07-02 21:26:00,71.3,70.7,30.20,SSW,210,4.0,6.0,98,0.00,,,0.00,Wunderground v.1.15,2013-07-03 01:26:00,
2013-07-02 21:31:00,71.3,70.7,30.20,WSW,240,4.0,4.0,98,0.00,,,0.00,Wunderground v.1.15,2013-07-03 01:31:00,
2013-07-02 21:36:00,71.4,70.8,30.20,South,172,3.0,4.0,98,0.00,,,0.00,Wunderground v.1.15,2013-07-03 01:36:00,
2013-07-02 21:41:00,71.4,70.8,30.20,SSW,209,2.0,3.0,98,0.00,,,0.00,Wunderground v.1.15,2013-07-03 01:41:00,
2013-07-02 21:46:00,71.4,70.8,30.20,SW,222,3.0,4.0,98,0.00,,,0.00,Wunderground v.1.15,2013-07-03 01:46:00,
2013-07-02 21:51:00,71.5,70.9,30.21,South,179,3.0,3.0,98,0.00,,,0.00,Wunderground v.1.15,2013-07-03 01:51:00,
2013-07-02 21:56:00,71.5,70.9,30.21,South,169,3.0,3.0,98,0.00,,,0.00,Wunderground v.1.15,2013-07-03 01:56:00,
2013-07-02 22:01:00,71.5,70.9,30.21,South,180,3.0,3.0,98,0.00,,,0.00,Wunderground v.1.15,2013-07-03 02:01:00,
2013-07-02 22:06:00,71.4,70.8,30.21,SSW,207,3.0,4.0,98,0.00,,,0.00,Wunderground v.1.15,2013-07-03 02:06:00,
2013-07-02 22:15:00,71.3,70.7,30.21,SSW,200,2.0,3.0,98,0.00,,,0.00,Wunderground v.1.15,2013-07-03 02:15:00,
2013-07-02 22:26:00,71.3,70.7,30.20,SE,146,1.0,2.0,98,0.00,,,0.00,Wunderground v.1.15,2013-07-03 02:26:00,
2013-07-02 22:31:00,71.2,70.6,30.20,SSE,163,1.0,1.0,98,0.00,,,0.00,Wunderground v.1.15,2013-07-03 02:31:00,
2013-07-02 22:41:00,71.3,70.7,30.20,South,179,1.0,3.0,98,0.00,,,0.00,Wunderground v.1.15,2013-07-03 02:41:00,
2013-07-02 22:46:00,71.4,70.8,30.20,South,190,2.0,3.0,98,0.00,,,0.00,Wunderground v.1.15,2013-07-03 02:46:00,
2013-07-02 22:51:00,71.4,70.8,30.20,South,184,3.0,3.0,98,0.00,,,0.00,Wunderground v.1.15,2013-07-03 02:51:00,
2013-07-02 22:56:00,71.4,70.8,30.20,SSW,198,2.0,3.0,98,0.00,,,0.00,Wunderground v.1.15,2013-07-03 02:56:00,
2013-07-02 23:01:00,71.4,70.8,30.20,South,190,1.0,2.0,98,0.00,,,0.00,Wunderground v.1.15,2013-07-03 03:01:00,
2013-07-02 23:06:00,71.4,70.8,30.20,SW,219,2.0,3.0,98,0.00,,,0.00,Wunderground v.1.15,2013-07-03 03:06:00,
2013-07-02 23:16:00,71.5,70.9,30.20,SSW,211,3.0,3.0,98,0.00,,,0.00,Wunderground v.1.15,2013-07-03 03:16:00,
2013-07-02 23:21:00,71.5,70.9,30.20,South,189,3.0,3.0,98,0.00,,,0.00,Wunderground v.1.15,2013-07-03 03:21:00,
2013-07-02 23:31:00,71.4,70.8,30.20,WSW,255,2.0,2.0,98,0.00,,,0.00,Wunderground v.1.15,2013-07-03 03:31:00,
2013-07-02 23:36:00,71.2,70.6,30.20,South,172,1.0,2.0,98,0.00,,,0.00,Wunderground v.1.15,2013-07-03 03:36:00,
2013-07-02 23:46:00,71.0,70.4,30.20,SW,222,1.0,1.0,98,0.00,,,0.00,Wunderground v.1.15,2013-07-03 03:46:00,
2013-07-02 23:51:00,71.0,70.7,30.20,SSW,210,0.0,0.0,99,0.00,,,0.00,Wunderground v.1.15,2013-07-03 03:51:00,
2013-07-02 23:56:00,71.0,70.7,30.20,SW,229,0.0,0.0,99,0.00,,,0.00,Wunderground v.1.15,2013-07-03 03:56:00,